Portada
METAR-TAF:

METAR-TAF

Aeropuertos :

Cerklje ob Krki, Eslovenia

latitud: 45-53-59N, longitud: 15-30-55E, altitud: 157 m

Observación

El informe se hizo hace 30 minutos, a las 05:30 UTC
Viento 1 kt con dirección variable
Temperatura 16°C
Humedad 88%
Presión 1007 hPa
Visibilidad 10 km o más
sin nubes por debajo de 1500 m y sin presencia de cumulonimbus.

METAR: LJCE 070530Z VRB01KT CAVOK 16/14 Q1007 RMK BLU

Hora: 08:00 (06:00 UTC)

Pronóstico

El informe se hizo hace 1 hora y 0 minutos, a las 05:00 UTC
Pronóstico válido del 07 a las 06 UTC al 07 a las 15 UTC
Viento 3 kt del suroeste
Visibilidad 10 km o más
sin nubes por debajo de 1500 m y sin presencia de cumulonimbus.

TAF: LJCE 070500Z 0706/0715 23003KT CAVOK

Observaciones y pronósticos meteorológicos de más de 4000 aeropuertos (mensajes METAR y TAF).

Los puntos amarillos y rojos representan las estaciones disponibles.

Ponga el ratón en el punto deseado para ver el nombre de la estación.

Haga clic para ver las observaciones y los pronósticos meteorológicos.

Para cambiar el mapa : haga clic en los botones verdes con una cruz de color negro para hacer un zoom, en el botón verde con un guión para alejar o en las flechas verdes para mapas adyacentes.


METAR-TAF: